JA889A RJFR-RJFR
Flight info
| Callsign | JA889A |
|---|---|
| Flight time | 2h 20m |
| Altitude | 00000 |
| Route | N0130VFR KOKURA STATION ASHIYA HAKATA STATION KOKURA STATION |
| Aircraft | C208/L-SDLOV/L |
Departure
| Time | 2026-05-07 13:07 |
|---|---|
| Airport | Kitakyushu Airport (RJFR) |
Arrival
| Time | 2026-05-07 15:27 |
|---|---|
| Airport | Kitakyushu Airport (RJFR) |
| Time | Latitude | Longitude | Altitude | Speed | Heading |
|---|---|---|---|---|---|
| 2026-05-07 12:55 | 33.83552 | 131.03309 | 29 ft | 0 kts | 28° |
| 2026-05-07 13:01 | 33.83570 | 131.03315 | 29 ft | 7 kts | 360° |
| 2026-05-07 13:01 | 33.83621 | 131.03313 | 29 ft | 6 kts | 38° |
| 2026-05-07 13:01 | 33.83632 | 131.03368 | 29 ft | 7 kts | 80° |
| 2026-05-07 13:02 | 33.83642 | 131.03434 | 29 ft | 8 kts | 78° |
| 2026-05-07 13:02 | 33.83629 | 131.03493 | 29 ft | 9 kts | 161° |
| 2026-05-07 13:02 | 33.83567 | 131.03507 | 29 ft | 10 kts | 171° |
| 2026-05-07 13:02 | 33.83498 | 131.03519 | 29 ft | 11 kts | 171° |
| 2026-05-07 13:03 | 33.83447 | 131.03577 | 29 ft | 11 kts | 95° |
| 2026-05-07 13:03 | 33.83456 | 131.03639 | 31 ft | 0 kts | 77° |
| 2026-05-07 13:06 | 33.83467 | 131.03695 | 32 ft | 15 kts | 62° |
| 2026-05-07 13:06 | 33.83513 | 131.03721 | 31 ft | 11 kts | 352° |
| 2026-05-07 13:07 | 33.83927 | 131.03638 | 41 ft | 95 kts | 351° |
| 2026-05-07 13:07 | 33.84590 | 131.03529 | 424 ft | 93 kts | 352° |
| 2026-05-07 13:07 | 33.85232 | 131.03422 | 840 ft | 92 kts | 349° |
| 2026-05-07 13:07 | 33.85844 | 131.03226 | 1313 ft | 91 kts | 340° |
| 2026-05-07 13:08 | 33.86461 | 131.03078 | 1700 ft | 91 kts | 328° |
| 2026-05-07 13:08 | 33.86747 | 131.02435 | 2046 ft | 90 kts | 290° |
| 2026-05-07 13:08 | 33.87058 | 131.01696 | 2337 ft | 106 kts | 293° |
| 2026-05-07 13:08 | 33.87393 | 131.00866 | 2667 ft | 114 kts | 293° |
| 2026-05-07 13:09 | 33.87754 | 130.99999 | 3004 ft | 118 kts | 293° |
| 2026-05-07 13:09 | 33.88151 | 130.99091 | 3344 ft | 126 kts | 293° |
| 2026-05-07 13:09 | 33.88577 | 130.98145 | 3688 ft | 131 kts | 293° |
| 2026-05-07 13:09 | 33.89025 | 130.97165 | 4014 ft | 136 kts | 294° |
| 2026-05-07 13:10 | 33.89414 | 130.96138 | 4333 ft | 133 kts | 273° |
| 2026-05-07 13:10 | 33.89461 | 130.95042 | 4666 ft | 130 kts | 268° |
| 2026-05-07 13:10 | 33.89512 | 130.93962 | 4987 ft | 130 kts | 268° |
| 2026-05-07 13:10 | 33.89544 | 130.92866 | 5309 ft | 132 kts | 268° |
| 2026-05-07 13:11 | 33.89565 | 130.91750 | 5628 ft | 134 kts | 268° |
| 2026-05-07 13:11 | 33.89581 | 130.90627 | 5950 ft | 133 kts | 268° |
| 2026-05-07 13:11 | 33.89583 | 130.89515 | 6275 ft | 132 kts | 268° |
| 2026-05-07 13:11 | 33.89577 | 130.88416 | 6581 ft | 131 kts | 268° |
| 2026-05-07 13:12 | 33.89569 | 130.87320 | 6888 ft | 131 kts | 268° |
| 2026-05-07 13:12 | 33.89559 | 130.86238 | 7190 ft | 131 kts | 268° |
| 2026-05-07 13:12 | 33.89550 | 130.85150 | 7503 ft | 129 kts | 267° |
| 2026-05-07 13:12 | 33.89541 | 130.84057 | 7820 ft | 128 kts | 268° |
| 2026-05-07 13:13 | 33.89533 | 130.82989 | 8042 ft | 130 kts | 268° |
| 2026-05-07 13:13 | 33.89526 | 130.81908 | 8235 ft | 129 kts | 268° |
| 2026-05-07 13:13 | 33.89517 | 130.80837 | 8431 ft | 128 kts | 268° |
| 2026-05-07 13:13 | 33.89506 | 130.79773 | 8614 ft | 128 kts | 268° |
| 2026-05-07 13:14 | 33.89498 | 130.78660 | 8590 ft | 136 kts | 268° |
| 2026-05-07 13:14 | 33.89488 | 130.77489 | 8522 ft | 142 kts | 268° |
| 2026-05-07 13:14 | 33.89476 | 130.76286 | 8498 ft | 144 kts | 268° |
| 2026-05-07 13:14 | 33.89463 | 130.75080 | 8503 ft | 144 kts | 268° |
| 2026-05-07 13:15 | 33.89446 | 130.73872 | 8505 ft | 146 kts | 268° |
| 2026-05-07 13:15 | 33.89435 | 130.72646 | 8504 ft | 146 kts | 268° |
| 2026-05-07 13:15 | 33.89426 | 130.71642 | 8505 ft | 147 kts | 268° |
| 2026-05-07 13:16 | 33.89424 | 130.71467 | 8507 ft | 148 kts | 268° |
| 2026-05-07 13:16 | 33.89419 | 130.71052 | 8506 ft | 149 kts | 268° |
| 2026-05-07 13:16 | 33.89418 | 130.70981 | 8507 ft | 149 kts | 268° |
| 2026-05-07 13:16 | 33.89397 | 130.69730 | 8506 ft | 150 kts | 264° |
| 2026-05-07 13:17 | 33.89064 | 130.68552 | 8484 ft | 152 kts | 234° |
| 2026-05-07 13:17 | 33.88123 | 130.67969 | 8447 ft | 162 kts | 193° |
| 2026-05-07 13:17 | 33.87022 | 130.68356 | 8412 ft | 175 kts | 151° |
| 2026-05-07 13:17 | 33.86334 | 130.69598 | 8377 ft | 187 kts | 110° |
| 2026-05-07 13:18 | 33.86421 | 130.71159 | 8340 ft | 191 kts | 68° |
| 2026-05-07 13:18 | 33.87264 | 130.72319 | 8327 ft | 183 kts | 25° |
| 2026-05-07 13:18 | 33.88433 | 130.72582 | 8317 ft | 169 kts | 343° |
| 2026-05-07 13:18 | 33.89367 | 130.71908 | 8317 ft | 152 kts | 301° |
| 2026-05-07 13:19 | 33.89586 | 130.70739 | 8315 ft | 145 kts | 258° |
| 2026-05-07 13:19 | 33.88999 | 130.69785 | 8317 ft | 150 kts | 215° |
| 2026-05-07 13:19 | 33.87943 | 130.69647 | 8320 ft | 164 kts | 173° |
| 2026-05-07 13:19 | 33.87001 | 130.70488 | 8311 ft | 179 kts | 130° |
| 2026-05-07 13:20 | 33.86697 | 130.71954 | 8301 ft | 188 kts | 87° |
| 2026-05-07 13:20 | 33.87214 | 130.73370 | 8290 ft | 186 kts | 45° |
| 2026-05-07 13:20 | 33.88304 | 130.74077 | 8280 ft | 175 kts | 2° |
| 2026-05-07 13:20 | 33.89419 | 130.73790 | 8276 ft | 160 kts | 320° |
| 2026-05-07 13:21 | 33.89996 | 130.72755 | 8276 ft | 148 kts | 277° |
| 2026-05-07 13:21 | 33.89956 | 130.71536 | 8303 ft | 146 kts | 263° |
| 2026-05-07 13:21 | 33.89839 | 130.70331 | 8327 ft | 144 kts | 258° |
| 2026-05-07 13:21 | 33.89273 | 130.69357 | 8321 ft | 149 kts | 219° |
| 2026-05-07 13:22 | 33.88397 | 130.68683 | 8354 ft | 149 kts | 219° |
| 2026-05-07 13:22 | 33.87535 | 130.67988 | 8377 ft | 149 kts | 220° |
| 2026-05-07 13:22 | 33.86699 | 130.67261 | 8404 ft | 148 kts | 221° |
| 2026-05-07 13:22 | 33.85876 | 130.66520 | 8425 ft | 147 kts | 222° |
| 2026-05-07 13:23 | 33.85057 | 130.65773 | 8448 ft | 147 kts | 222° |
| 2026-05-07 13:23 | 33.84242 | 130.65030 | 8467 ft | 147 kts | 223° |
| 2026-05-07 13:23 | 33.83428 | 130.64289 | 8491 ft | 145 kts | 223° |
| 2026-05-07 13:23 | 33.82624 | 130.63557 | 8520 ft | 146 kts | 223° |
| 2026-05-07 13:24 | 33.81841 | 130.62847 | 8732 ft | 136 kts | 223° |
| 2026-05-07 13:24 | 33.81107 | 130.62184 | 8962 ft | 131 kts | 223° |
| 2026-05-07 13:24 | 33.80368 | 130.61511 | 9195 ft | 136 kts | 224° |
| 2026-05-07 13:24 | 33.79609 | 130.60816 | 9426 ft | 138 kts | 223° |
| 2026-05-07 13:25 | 33.78842 | 130.60114 | 9664 ft | 139 kts | 224° |
| 2026-05-07 13:25 | 33.78069 | 130.59411 | 9888 ft | 139 kts | 224° |
| 2026-05-07 13:25 | 33.77296 | 130.58709 | 10096 ft | 139 kts | 224° |
| 2026-05-07 13:25 | 33.76526 | 130.58008 | 10307 ft | 138 kts | 224° |
| 2026-05-07 13:26 | 33.75757 | 130.57309 | 10516 ft | 139 kts | 224° |
| 2026-05-07 13:26 | 33.74992 | 130.56610 | 10723 ft | 137 kts | 226° |
| 2026-05-07 13:26 | 33.74632 | 130.55643 | 10950 ft | 132 kts | 275° |
| 2026-05-07 13:26 | 33.75197 | 130.54771 | 11187 ft | 149 kts | 327° |
| 2026-05-07 13:27 | 33.76308 | 130.54778 | 11311 ft | 180 kts | 15° |
| 2026-05-07 13:27 | 33.77254 | 130.55834 | 11315 ft | 201 kts | 62° |
| 2026-05-07 13:27 | 33.77421 | 130.57419 | 11309 ft | 186 kts | 110° |
| 2026-05-07 13:27 | 33.76721 | 130.58594 | 11314 ft | 163 kts | 161° |
| 2026-05-07 13:28 | 33.75720 | 130.58729 | 11314 ft | 138 kts | 211° |
| 2026-05-07 13:28 | 33.74943 | 130.58121 | 11311 ft | 132 kts | 224° |
| 2026-05-07 13:28 | 33.74288 | 130.57385 | 11308 ft | 127 kts | 237° |
| 2026-05-07 13:28 | 33.73847 | 130.56483 | 11294 ft | 126 kts | 241° |
| 2026-05-07 13:29 | 33.73156 | 130.55796 | 11285 ft | 128 kts | 223° |
| 2026-05-07 13:29 | 33.72466 | 130.55165 | 11289 ft | 126 kts | 226° |
| 2026-05-07 13:29 | 33.71776 | 130.54504 | 11290 ft | 128 kts | 226° |
| 2026-05-07 13:29 | 33.71081 | 130.53833 | 11287 ft | 128 kts | 226° |
| 2026-05-07 13:30 | 33.70388 | 130.53162 | 11286 ft | 128 kts | 226° |
| 2026-05-07 13:30 | 33.69687 | 130.52481 | 11292 ft | 131 kts | 226° |
| 2026-05-07 13:30 | 33.68973 | 130.51787 | 11294 ft | 132 kts | 226° |
| 2026-05-07 13:30 | 33.68253 | 130.51085 | 11299 ft | 134 kts | 226° |
| 2026-05-07 13:31 | 33.67524 | 130.50375 | 11305 ft | 136 kts | 226° |
| 2026-05-07 13:31 | 33.66786 | 130.49659 | 11305 ft | 137 kts | 226° |
| 2026-05-07 13:31 | 33.66049 | 130.48942 | 11301 ft | 137 kts | 226° |
| 2026-05-07 13:31 | 33.65307 | 130.48221 | 11304 ft | 137 kts | 226° |
| 2026-05-07 13:32 | 33.64565 | 130.47503 | 11301 ft | 137 kts | 226° |
| 2026-05-07 13:32 | 33.63825 | 130.46780 | 11299 ft | 137 kts | 226° |
| 2026-05-07 13:32 | 33.63091 | 130.46043 | 11300 ft | 137 kts | 227° |
| 2026-05-07 13:32 | 33.62361 | 130.45304 | 11299 ft | 137 kts | 227° |
| 2026-05-07 13:33 | 33.61631 | 130.44566 | 11296 ft | 138 kts | 226° |
| 2026-05-07 13:33 | 33.60869 | 130.43862 | 11295 ft | 139 kts | 223° |
| 2026-05-07 13:33 | 33.60071 | 130.43201 | 11293 ft | 140 kts | 221° |
| 2026-05-07 13:33 | 33.59257 | 130.42560 | 11291 ft | 140 kts | 221° |
| 2026-05-07 13:34 | 33.58466 | 130.41912 | 11293 ft | 138 kts | 227° |
| 2026-05-07 13:34 | 33.56570 | 130.41778 | 11282 ft | 173 kts | 151° |
| 2026-05-07 13:34 | 33.55942 | 130.43052 | 11279 ft | 188 kts | 107° |
| 2026-05-07 13:35 | 33.56109 | 130.44596 | 11280 ft | 191 kts | 62° |
| 2026-05-07 13:35 | 33.57008 | 130.45675 | 11282 ft | 180 kts | 18° |
| 2026-05-07 13:35 | 33.58155 | 130.45804 | 11281 ft | 158 kts | 333° |
| 2026-05-07 13:35 | 33.58920 | 130.45046 | 11284 ft | 138 kts | 289° |
| 2026-05-07 13:36 | 33.58917 | 130.43974 | 11292 ft | 131 kts | 251° |
| 2026-05-07 13:36 | 33.58951 | 130.42915 | 11309 ft | 138 kts | 295° |
| 2026-05-07 13:36 | 33.59823 | 130.42301 | 11309 ft | 164 kts | 345° |
| 2026-05-07 13:36 | 33.60957 | 130.42746 | 11305 ft | 186 kts | 35° |
| 2026-05-07 13:37 | 33.61583 | 130.44100 | 11305 ft | 191 kts | 84° |
| 2026-05-07 13:37 | 33.61308 | 130.45588 | 11307 ft | 179 kts | 133° |
| 2026-05-07 13:37 | 33.60359 | 130.46340 | 11310 ft | 156 kts | 182° |
| 2026-05-07 13:37 | 33.59429 | 130.46009 | 11310 ft | 135 kts | 228° |
| 2026-05-07 13:38 | 33.58780 | 130.45202 | 11306 ft | 135 kts | 232° |
| 2026-05-07 13:38 | 33.58144 | 130.44376 | 11305 ft | 133 kts | 238° |
| 2026-05-07 13:38 | 33.58010 | 130.43329 | 11307 ft | 136 kts | 285° |
| 2026-05-07 13:38 | 33.58459 | 130.42307 | 11307 ft | 139 kts | 292° |
| 2026-05-07 13:39 | 33.58933 | 130.41288 | 11303 ft | 140 kts | 292° |
| 2026-05-07 13:39 | 33.59545 | 130.40365 | 11306 ft | 152 kts | 320° |
| 2026-05-07 13:39 | 33.60653 | 130.40245 | 11302 ft | 177 kts | 10° |
| 2026-05-07 13:39 | 33.61652 | 130.41172 | 11307 ft | 188 kts | 47° |
| 2026-05-07 13:40 | 33.62435 | 130.42439 | 11305 ft | 190 kts | 58° |
| 2026-05-07 13:40 | 33.62812 | 130.43956 | 11307 ft | 191 kts | 84° |
| 2026-05-07 13:40 | 33.62995 | 130.45538 | 11304 ft | 191 kts | 83° |
| 2026-05-07 13:40 | 33.63229 | 130.47110 | 11300 ft | 192 kts | 81° |
| 2026-05-07 13:41 | 33.63481 | 130.48682 | 11301 ft | 192 kts | 81° |
| 2026-05-07 13:41 | 33.63728 | 130.50229 | 11301 ft | 191 kts | 81° |
| 2026-05-07 13:41 | 33.63972 | 130.51802 | 11299 ft | 192 kts | 82° |
| 2026-05-07 13:41 | 33.64205 | 130.53371 | 11305 ft | 192 kts | 81° |
| 2026-05-07 13:42 | 33.64468 | 130.54950 | 11303 ft | 193 kts | 80° |
| 2026-05-07 13:42 | 33.64744 | 130.56533 | 11309 ft | 195 kts | 79° |
| 2026-05-07 13:42 | 33.65016 | 130.58129 | 11306 ft | 195 kts | 81° |
| 2026-05-07 13:42 | 33.65185 | 130.59203 | 11306 ft | 194 kts | 81° |
| 2026-05-07 13:43 | 33.65507 | 130.60768 | 11287 ft | 193 kts | 63° |
| 2026-05-07 13:43 | 33.66357 | 130.61966 | 11294 ft | 187 kts | 38° |
| 2026-05-07 13:43 | 33.67022 | 130.63298 | 11308 ft | 191 kts | 82° |
| 2026-05-07 13:43 | 33.66799 | 130.64765 | 11314 ft | 179 kts | 130° |
| 2026-05-07 13:44 | 33.65861 | 130.65575 | 11326 ft | 156 kts | 180° |
| 2026-05-07 13:44 | 33.64933 | 130.65293 | 11327 ft | 135 kts | 229° |
| 2026-05-07 13:44 | 33.64654 | 130.64287 | 11336 ft | 134 kts | 276° |
| 2026-05-07 13:44 | 33.64750 | 130.63180 | 11332 ft | 133 kts | 268° |
| 2026-05-07 13:45 | 33.64750 | 130.62072 | 11327 ft | 133 kts | 268° |
| 2026-05-07 13:45 | 33.64742 | 130.60963 | 11329 ft | 133 kts | 268° |
| 2026-05-07 13:45 | 33.64704 | 130.59850 | 11322 ft | 133 kts | 259° |
| 2026-05-07 13:45 | 33.64433 | 130.58787 | 11320 ft | 132 kts | 257° |
| 2026-05-07 13:46 | 33.64254 | 130.57705 | 11328 ft | 133 kts | 259° |
| 2026-05-07 13:46 | 33.64072 | 130.56616 | 11329 ft | 134 kts | 259° |
| 2026-05-07 13:46 | 33.63889 | 130.55514 | 11332 ft | 135 kts | 259° |
| 2026-05-07 13:46 | 33.63709 | 130.54405 | 11335 ft | 135 kts | 259° |
| 2026-05-07 13:47 | 33.63527 | 130.53297 | 11331 ft | 136 kts | 259° |
| 2026-05-07 13:47 | 33.63347 | 130.52183 | 11329 ft | 136 kts | 259° |
| 2026-05-07 13:47 | 33.63177 | 130.51068 | 11327 ft | 136 kts | 259° |
| 2026-05-07 13:47 | 33.63010 | 130.49958 | 11324 ft | 135 kts | 259° |
| 2026-05-07 13:48 | 33.62828 | 130.48855 | 11324 ft | 135 kts | 259° |
| 2026-05-07 13:48 | 33.62645 | 130.47752 | 11322 ft | 135 kts | 258° |
| 2026-05-07 13:48 | 33.62462 | 130.46653 | 11323 ft | 134 kts | 259° |
| 2026-05-07 13:48 | 33.62280 | 130.45557 | 11321 ft | 134 kts | 259° |
| 2026-05-07 13:49 | 33.62099 | 130.44461 | 11319 ft | 134 kts | 259° |
| 2026-05-07 13:49 | 33.61916 | 130.43367 | 11318 ft | 134 kts | 259° |
| 2026-05-07 13:49 | 33.61735 | 130.42276 | 11321 ft | 133 kts | 259° |
| 2026-05-07 13:49 | 33.61933 | 130.41208 | 11330 ft | 142 kts | 301° |
| 2026-05-07 13:50 | 33.62638 | 130.40352 | 11331 ft | 143 kts | 302° |
| 2026-05-07 13:50 | 33.62884 | 130.39296 | 11318 ft | 132 kts | 257° |
| 2026-05-07 13:50 | 33.62297 | 130.38467 | 11319 ft | 142 kts | 212° |
| 2026-05-07 13:50 | 33.61269 | 130.38499 | 11315 ft | 164 kts | 167° |
| 2026-05-07 13:51 | 33.60439 | 130.39512 | 11316 ft | 183 kts | 121° |
| 2026-05-07 13:51 | 33.60325 | 130.41048 | 11318 ft | 191 kts | 78° |
| 2026-05-07 13:51 | 33.60730 | 130.42542 | 11324 ft | 191 kts | 68° |
| 2026-05-07 13:51 | 33.61209 | 130.44025 | 11330 ft | 191 kts | 76° |
| 2026-05-07 13:52 | 33.61495 | 130.45576 | 11336 ft | 191 kts | 80° |
| 2026-05-07 13:52 | 33.61748 | 130.47145 | 11332 ft | 192 kts | 81° |
| 2026-05-07 13:52 | 33.62001 | 130.48713 | 11335 ft | 192 kts | 81° |
| 2026-05-07 13:52 | 33.62256 | 130.50287 | 11335 ft | 192 kts | 80° |
| 2026-05-07 13:53 | 33.62514 | 130.51858 | 11335 ft | 192 kts | 81° |
| 2026-05-07 13:53 | 33.62768 | 130.53432 | 11335 ft | 192 kts | 81° |
| 2026-05-07 13:53 | 33.63007 | 130.55015 | 11334 ft | 194 kts | 81° |
| 2026-05-07 13:53 | 33.63273 | 130.56603 | 11332 ft | 194 kts | 79° |
| 2026-05-07 13:54 | 33.63539 | 130.58193 | 11329 ft | 194 kts | 80° |
| 2026-05-07 13:54 | 33.63805 | 130.59781 | 11323 ft | 193 kts | 80° |
| 2026-05-07 13:54 | 33.64345 | 130.61217 | 11300 ft | 188 kts | 44° |
| 2026-05-07 13:54 | 33.65179 | 130.62400 | 11311 ft | 190 kts | 64° |
| 2026-05-07 13:55 | 33.65258 | 130.63926 | 11316 ft | 183 kts | 115° |
| 2026-05-07 13:55 | 33.64504 | 130.65014 | 11327 ft | 163 kts | 164° |
| 2026-05-07 13:55 | 33.63487 | 130.65074 | 11330 ft | 141 kts | 213° |
| 2026-05-07 13:55 | 33.62946 | 130.64220 | 11332 ft | 132 kts | 262° |
| 2026-05-07 13:56 | 33.63037 | 130.63120 | 11331 ft | 133 kts | 274° |
| 2026-05-07 13:56 | 33.63139 | 130.62018 | 11331 ft | 133 kts | 273° |
| 2026-05-07 13:56 | 33.63187 | 130.60908 | 11329 ft | 133 kts | 265° |
| 2026-05-07 13:56 | 33.63051 | 130.59811 | 11325 ft | 133 kts | 259° |
| 2026-05-07 13:57 | 33.62907 | 130.58714 | 11325 ft | 133 kts | 261° |
| 2026-05-07 13:57 | 33.62748 | 130.57618 | 11329 ft | 134 kts | 259° |
| 2026-05-07 13:57 | 33.62577 | 130.56529 | 11331 ft | 135 kts | 259° |
| 2026-05-07 13:57 | 33.62401 | 130.55421 | 11333 ft | 135 kts | 259° |
| 2026-05-07 13:58 | 33.62222 | 130.54316 | 11333 ft | 135 kts | 259° |
| 2026-05-07 13:58 | 33.62043 | 130.53213 | 11331 ft | 135 kts | 259° |
| 2026-05-07 13:58 | 33.61865 | 130.52110 | 11332 ft | 134 kts | 259° |
| 2026-05-07 13:58 | 33.61688 | 130.51007 | 11329 ft | 134 kts | 258° |
| 2026-05-07 13:59 | 33.61505 | 130.49909 | 11329 ft | 134 kts | 259° |
| 2026-05-07 13:59 | 33.61324 | 130.48813 | 11327 ft | 134 kts | 258° |
| 2026-05-07 13:59 | 33.61142 | 130.47717 | 11326 ft | 134 kts | 259° |
| 2026-05-07 13:59 | 33.60959 | 130.46621 | 11330 ft | 134 kts | 258° |
| 2026-05-07 14:00 | 33.60776 | 130.45530 | 11329 ft | 134 kts | 259° |
| 2026-05-07 14:00 | 33.60594 | 130.44435 | 11328 ft | 134 kts | 259° |
| 2026-05-07 14:00 | 33.60428 | 130.43339 | 11320 ft | 133 kts | 259° |
| 2026-05-07 14:00 | 33.60305 | 130.42238 | 11320 ft | 134 kts | 272° |
| 2026-05-07 14:01 | 33.60774 | 130.41246 | 11328 ft | 141 kts | 298° |
| 2026-05-07 14:01 | 33.60938 | 130.40183 | 11317 ft | 132 kts | 252° |
| 2026-05-07 14:01 | 33.60279 | 130.39426 | 11313 ft | 144 kts | 207° |
| 2026-05-07 14:01 | 33.59237 | 130.39576 | 11314 ft | 167 kts | 161° |
| 2026-05-07 14:02 | 33.58463 | 130.40680 | 11316 ft | 185 kts | 116° |
| 2026-05-07 14:02 | 33.58442 | 130.42239 | 11316 ft | 192 kts | 71° |
| 2026-05-07 14:02 | 33.59197 | 130.43498 | 11325 ft | 185 kts | 39° |
| 2026-05-07 14:02 | 33.59894 | 130.44810 | 11337 ft | 190 kts | 71° |
| 2026-05-07 14:03 | 33.60187 | 130.46357 | 11339 ft | 191 kts | 82° |
| 2026-05-07 14:03 | 33.60411 | 130.47927 | 11336 ft | 191 kts | 81° |
| 2026-05-07 14:03 | 33.60658 | 130.49495 | 11337 ft | 192 kts | 81° |
| 2026-05-07 14:03 | 33.60914 | 130.51070 | 11337 ft | 193 kts | 81° |
| 2026-05-07 14:04 | 33.61170 | 130.52649 | 11336 ft | 193 kts | 80° |
| 2026-05-07 14:04 | 33.61427 | 130.54214 | 11335 ft | 194 kts | 80° |
| 2026-05-07 14:04 | 33.61689 | 130.55822 | 11333 ft | 194 kts | 80° |
| 2026-05-07 14:04 | 33.61940 | 130.57389 | 11332 ft | 193 kts | 81° |
| 2026-05-07 14:05 | 33.62201 | 130.58967 | 11331 ft | 193 kts | 79° |
| 2026-05-07 14:05 | 33.62517 | 130.60532 | 11316 ft | 192 kts | 69° |
| 2026-05-07 14:05 | 33.63301 | 130.61774 | 11314 ft | 186 kts | 39° |
| 2026-05-07 14:05 | 33.63935 | 130.63116 | 11314 ft | 190 kts | 83° |
| 2026-05-07 14:06 | 33.63664 | 130.64578 | 11313 ft | 176 kts | 134° |
| 2026-05-07 14:06 | 33.62729 | 130.65304 | 11330 ft | 152 kts | 184° |
| 2026-05-07 14:06 | 33.61831 | 130.64955 | 11330 ft | 132 kts | 233° |
| 2026-05-07 14:06 | 33.61606 | 130.63942 | 11334 ft | 131 kts | 272° |
| 2026-05-07 14:07 | 33.61726 | 130.62854 | 11328 ft | 132 kts | 274° |
| 2026-05-07 14:07 | 33.61849 | 130.61773 | 11329 ft | 131 kts | 274° |
| 2026-05-07 14:07 | 33.61896 | 130.60688 | 11320 ft | 130 kts | 256° |
| 2026-05-07 14:07 | 33.61641 | 130.59652 | 11328 ft | 130 kts | 261° |
| 2026-05-07 14:08 | 33.61465 | 130.58583 | 11332 ft | 131 kts | 257° |
| 2026-05-07 14:08 | 33.61275 | 130.57503 | 11333 ft | 132 kts | 258° |
| 2026-05-07 14:08 | 33.61094 | 130.56428 | 11309 ft | 131 kts | 259° |
| 2026-05-07 14:08 | 33.60919 | 130.55355 | 11309 ft | 131 kts | 259° |
| 2026-05-07 14:09 | 33.60743 | 130.54278 | 11309 ft | 132 kts | 260° |
| 2026-05-07 14:09 | 33.60570 | 130.53196 | 11309 ft | 133 kts | 259° |
| 2026-05-07 14:09 | 33.60391 | 130.52104 | 11305 ft | 133 kts | 259° |
| 2026-05-07 14:09 | 33.60221 | 130.51011 | 11306 ft | 133 kts | 259° |
| 2026-05-07 14:10 | 33.60044 | 130.49919 | 11307 ft | 134 kts | 259° |
| 2026-05-07 14:10 | 33.59861 | 130.48824 | 11302 ft | 134 kts | 259° |
| 2026-05-07 14:10 | 33.59677 | 130.47732 | 11301 ft | 133 kts | 258° |
| 2026-05-07 14:10 | 33.59508 | 130.46656 | 11301 ft | 133 kts | 259° |
| 2026-05-07 14:11 | 33.59325 | 130.45575 | 11298 ft | 132 kts | 258° |
| 2026-05-07 14:11 | 33.59142 | 130.44493 | 11299 ft | 132 kts | 258° |
| 2026-05-07 14:11 | 33.58960 | 130.43412 | 11298 ft | 132 kts | 259° |
| 2026-05-07 14:11 | 33.58877 | 130.42323 | 11300 ft | 134 kts | 278° |
| 2026-05-07 14:12 | 33.59289 | 130.41298 | 11308 ft | 138 kts | 292° |
| 2026-05-07 14:12 | 33.59625 | 130.40253 | 11295 ft | 132 kts | 267° |
| 2026-05-07 14:12 | 33.59198 | 130.39321 | 11292 ft | 138 kts | 221° |
| 2026-05-07 14:12 | 33.58211 | 130.39158 | 11290 ft | 159 kts | 175° |
| 2026-05-07 14:13 | 33.57295 | 130.40002 | 11288 ft | 180 kts | 130° |
| 2026-05-07 14:13 | 33.57030 | 130.41490 | 11288 ft | 190 kts | 84° |
| 2026-05-07 14:13 | 33.57600 | 130.42873 | 11291 ft | 185 kts | 39° |
| 2026-05-07 14:13 | 33.58481 | 130.43977 | 11299 ft | 188 kts | 61° |
| 2026-05-07 14:14 | 33.58678 | 130.45507 | 11312 ft | 187 kts | 92° |
| 2026-05-07 14:14 | 33.58805 | 130.47071 | 11311 ft | 189 kts | 82° |
| 2026-05-07 14:14 | 33.59058 | 130.48623 | 11310 ft | 190 kts | 80° |
| 2026-05-07 14:14 | 33.59317 | 130.50179 | 11309 ft | 191 kts | 80° |
| 2026-05-07 14:15 | 33.59571 | 130.51744 | 11309 ft | 192 kts | 80° |
| 2026-05-07 14:15 | 33.59819 | 130.53299 | 11308 ft | 193 kts | 81° |
| 2026-05-07 14:15 | 33.60071 | 130.54881 | 11307 ft | 193 kts | 80° |
| 2026-05-07 14:15 | 33.60327 | 130.56461 | 11303 ft | 193 kts | 79° |
| 2026-05-07 14:16 | 33.60595 | 130.58022 | 11300 ft | 190 kts | 79° |
| 2026-05-07 14:16 | 33.60854 | 130.59582 | 11300 ft | 191 kts | 79° |
| 2026-05-07 14:16 | 33.61187 | 130.61120 | 11286 ft | 191 kts | 62° |
| 2026-05-07 14:16 | 33.62016 | 130.62311 | 11293 ft | 183 kts | 44° |
| 2026-05-07 14:17 | 33.62445 | 130.63717 | 11294 ft | 182 kts | 96° |
| 2026-05-07 14:17 | 33.61953 | 130.65022 | 11308 ft | 167 kts | 148° |
| 2026-05-07 14:17 | 33.60961 | 130.65429 | 11313 ft | 144 kts | 199° |
| 2026-05-07 14:17 | 33.60230 | 130.64807 | 11315 ft | 129 kts | 248° |
| 2026-05-07 14:18 | 33.60251 | 130.63745 | 11313 ft | 132 kts | 277° |
| 2026-05-07 14:18 | 33.60333 | 130.62661 | 11306 ft | 130 kts | 266° |
| 2026-05-07 14:18 | 33.60292 | 130.61586 | 11310 ft | 128 kts | 266° |
| 2026-05-07 14:18 | 33.60219 | 130.60519 | 11302 ft | 128 kts | 259° |
| 2026-05-07 14:19 | 33.60086 | 130.59455 | 11302 ft | 130 kts | 262° |
| 2026-05-07 14:19 | 33.59932 | 130.58386 | 11305 ft | 131 kts | 259° |
| 2026-05-07 14:19 | 33.59763 | 130.57305 | 11305 ft | 132 kts | 259° |
| 2026-05-07 14:19 | 33.59590 | 130.56228 | 11304 ft | 131 kts | 259° |
| 2026-05-07 14:20 | 33.59415 | 130.55151 | 11310 ft | 132 kts | 259° |
| 2026-05-07 14:20 | 33.59240 | 130.54068 | 11305 ft | 132 kts | 259° |
| 2026-05-07 14:20 | 33.59063 | 130.52982 | 11309 ft | 133 kts | 259° |
| 2026-05-07 14:20 | 33.58887 | 130.51886 | 11308 ft | 134 kts | 259° |
| 2026-05-07 14:21 | 33.58719 | 130.50788 | 11309 ft | 133 kts | 260° |
| 2026-05-07 14:21 | 33.58545 | 130.49699 | 11304 ft | 133 kts | 258° |
| 2026-05-07 14:21 | 33.58360 | 130.48613 | 11302 ft | 133 kts | 258° |
| 2026-05-07 14:21 | 33.58179 | 130.47526 | 11305 ft | 133 kts | 259° |
| 2026-05-07 14:22 | 33.57999 | 130.46444 | 11299 ft | 132 kts | 259° |
| 2026-05-07 14:22 | 33.57821 | 130.45359 | 11301 ft | 132 kts | 259° |
| 2026-05-07 14:22 | 33.57652 | 130.44276 | 11298 ft | 132 kts | 259° |
| 2026-05-07 14:22 | 33.57415 | 130.43217 | 11286 ft | 133 kts | 244° |
| 2026-05-07 14:23 | 33.56683 | 130.42525 | 11294 ft | 140 kts | 214° |
| 2026-05-07 14:23 | 33.55806 | 130.42016 | 11299 ft | 140 kts | 215° |
| 2026-05-07 14:23 | 33.54947 | 130.41483 | 11302 ft | 136 kts | 224° |
| 2026-05-07 14:23 | 33.54592 | 130.40523 | 11312 ft | 132 kts | 274° |
| 2026-05-07 14:24 | 33.55147 | 130.39617 | 11310 ft | 151 kts | 323° |
| 2026-05-07 14:24 | 33.56254 | 130.39562 | 11310 ft | 176 kts | 12° |
| 2026-05-07 14:24 | 33.57186 | 130.40565 | 11307 ft | 190 kts | 61° |
| 2026-05-07 14:24 | 33.57346 | 130.42102 | 11313 ft | 187 kts | 107° |
| 2026-05-07 14:25 | 33.57007 | 130.43597 | 11309 ft | 187 kts | 107° |
| 2026-05-07 14:25 | 33.57030 | 130.45163 | 11298 ft | 190 kts | 83° |
| 2026-05-07 14:25 | 33.57263 | 130.46726 | 11302 ft | 191 kts | 81° |
| 2026-05-07 14:25 | 33.57518 | 130.48287 | 11304 ft | 191 kts | 80° |
| 2026-05-07 14:26 | 33.57775 | 130.49851 | 11303 ft | 191 kts | 80° |
| 2026-05-07 14:26 | 33.58030 | 130.51415 | 11302 ft | 191 kts | 80° |
| 2026-05-07 14:26 | 33.58284 | 130.52983 | 11305 ft | 191 kts | 80° |
| 2026-05-07 14:26 | 33.58539 | 130.54551 | 11304 ft | 192 kts | 80° |
| 2026-05-07 14:27 | 33.58798 | 130.56128 | 11306 ft | 193 kts | 81° |
| 2026-05-07 14:27 | 33.59051 | 130.57714 | 11301 ft | 192 kts | 81° |
| 2026-05-07 14:27 | 33.59218 | 130.58753 | 11303 ft | 191 kts | 81° |
| 2026-05-07 14:27 | 33.59566 | 130.60821 | 11297 ft | 190 kts | 79° |
| 2026-05-07 14:28 | 33.60145 | 130.62206 | 11288 ft | 185 kts | 41° |
| 2026-05-07 14:28 | 33.60944 | 130.63395 | 11293 ft | 187 kts | 68° |
| 2026-05-07 14:28 | 33.61052 | 130.64430 | 11298 ft | 186 kts | 103° |
| 2026-05-07 14:28 | 33.60462 | 130.65697 | 11312 ft | 169 kts | 153° |
| 2026-05-07 14:29 | 33.59439 | 130.66019 | 11314 ft | 145 kts | 202° |
| 2026-05-07 14:29 | 33.58737 | 130.65332 | 11315 ft | 131 kts | 251° |
| 2026-05-07 14:29 | 33.58732 | 130.64249 | 11311 ft | 133 kts | 274° |
| 2026-05-07 14:29 | 33.58829 | 130.63143 | 11313 ft | 133 kts | 272° |
| 2026-05-07 14:30 | 33.58906 | 130.62050 | 11312 ft | 133 kts | 271° |
| 2026-05-07 14:30 | 33.58944 | 130.60945 | 11302 ft | 132 kts | 261° |
| 2026-05-07 14:30 | 33.58739 | 130.59888 | 11299 ft | 129 kts | 262° |
| 2026-05-07 14:30 | 33.58565 | 130.58834 | 11295 ft | 128 kts | 257° |
| 2026-05-07 14:31 | 33.58381 | 130.57790 | 11296 ft | 128 kts | 258° |
| 2026-05-07 14:31 | 33.58203 | 130.56737 | 11294 ft | 129 kts | 259° |
| 2026-05-07 14:31 | 33.58029 | 130.55678 | 11302 ft | 132 kts | 259° |
| 2026-05-07 14:31 | 33.57853 | 130.54589 | 11307 ft | 133 kts | 259° |
| 2026-05-07 14:32 | 33.57676 | 130.53495 | 11309 ft | 134 kts | 259° |
| 2026-05-07 14:32 | 33.57499 | 130.52400 | 11304 ft | 134 kts | 259° |
| 2026-05-07 14:32 | 33.57325 | 130.51307 | 11302 ft | 133 kts | 259° |
| 2026-05-07 14:32 | 33.57149 | 130.50221 | 11301 ft | 133 kts | 259° |
| 2026-05-07 14:33 | 33.56967 | 130.49136 | 11303 ft | 132 kts | 259° |
| 2026-05-07 14:33 | 33.56789 | 130.48056 | 11300 ft | 131 kts | 259° |
| 2026-05-07 14:33 | 33.56625 | 130.46981 | 11299 ft | 131 kts | 259° |
| 2026-05-07 14:33 | 33.56456 | 130.45900 | 11298 ft | 132 kts | 259° |
| 2026-05-07 14:34 | 33.56272 | 130.44820 | 11296 ft | 132 kts | 258° |
| 2026-05-07 14:34 | 33.56088 | 130.43738 | 11297 ft | 132 kts | 258° |
| 2026-05-07 14:34 | 33.55562 | 130.42852 | 11293 ft | 138 kts | 220° |
| 2026-05-07 14:34 | 33.54731 | 130.42283 | 11298 ft | 139 kts | 218° |
| 2026-05-07 14:35 | 33.53876 | 130.41704 | 11299 ft | 140 kts | 218° |
| 2026-05-07 14:35 | 33.53029 | 130.41130 | 11300 ft | 139 kts | 219° |
| 2026-05-07 14:35 | 33.52523 | 130.40266 | 11308 ft | 131 kts | 264° |
| 2026-05-07 14:35 | 33.52903 | 130.39268 | 11312 ft | 147 kts | 313° |
| 2026-05-07 14:36 | 33.53956 | 130.38989 | 11310 ft | 172 kts | 2° |
| 2026-05-07 14:36 | 33.54995 | 130.39787 | 11308 ft | 189 kts | 50° |
| 2026-05-07 14:36 | 33.55417 | 130.41280 | 11309 ft | 191 kts | 85° |
| 2026-05-07 14:36 | 33.55483 | 130.42870 | 11312 ft | 190 kts | 94° |
| 2026-05-07 14:37 | 33.55495 | 130.44458 | 11299 ft | 192 kts | 82° |
| 2026-05-07 14:37 | 33.55946 | 130.47604 | 11301 ft | 192 kts | 82° |
| 2026-05-07 14:37 | 33.56194 | 130.49184 | 11299 ft | 192 kts | 80° |
| 2026-05-07 14:38 | 33.56450 | 130.50751 | 11297 ft | 191 kts | 80° |
| 2026-05-07 14:38 | 33.56706 | 130.52310 | 11299 ft | 191 kts | 80° |
| 2026-05-07 14:38 | 33.56961 | 130.53879 | 11296 ft | 192 kts | 80° |
| 2026-05-07 14:38 | 33.57216 | 130.55452 | 11299 ft | 193 kts | 80° |
| 2026-05-07 14:39 | 33.57473 | 130.57038 | 11301 ft | 194 kts | 81° |
| 2026-05-07 14:39 | 33.57731 | 130.58624 | 11294 ft | 193 kts | 80° |
| 2026-05-07 14:39 | 33.57983 | 130.60188 | 11292 ft | 189 kts | 81° |
| 2026-05-07 14:39 | 33.58378 | 130.61662 | 11282 ft | 186 kts | 53° |
| 2026-05-07 14:40 | 33.59200 | 130.62829 | 11299 ft | 186 kts | 59° |
| 2026-05-07 14:40 | 33.59366 | 130.64329 | 11305 ft | 184 kts | 111° |
| 2026-05-07 14:40 | 33.58666 | 130.65477 | 11315 ft | 164 kts | 161° |
| 2026-05-07 14:40 | 33.57649 | 130.65608 | 11319 ft | 140 kts | 211° |
| 2026-05-07 14:41 | 33.57079 | 130.64811 | 11316 ft | 130 kts | 259° |
| 2026-05-07 14:41 | 33.57233 | 130.63733 | 11312 ft | 134 kts | 281° |
| 2026-05-07 14:41 | 33.57406 | 130.62640 | 11314 ft | 133 kts | 272° |
| 2026-05-07 14:41 | 33.57362 | 130.61531 | 11307 ft | 131 kts | 261° |
| 2026-05-07 14:42 | 33.57254 | 130.60464 | 11306 ft | 130 kts | 265° |
| 2026-05-07 14:42 | 33.57135 | 130.59401 | 11301 ft | 128 kts | 259° |
| 2026-05-07 14:42 | 33.56969 | 130.58366 | 11294 ft | 124 kts | 259° |
| 2026-05-07 14:42 | 33.56806 | 130.57359 | 11299 ft | 123 kts | 259° |
| 2026-05-07 14:43 | 33.56643 | 130.56324 | 11306 ft | 129 kts | 259° |
| 2026-05-07 14:43 | 33.56474 | 130.55259 | 11310 ft | 132 kts | 259° |
| 2026-05-07 14:43 | 33.56307 | 130.54173 | 11310 ft | 133 kts | 259° |
| 2026-05-07 14:43 | 33.56139 | 130.53079 | 11309 ft | 133 kts | 259° |
| 2026-05-07 14:44 | 33.55954 | 130.51989 | 11307 ft | 133 kts | 258° |
| 2026-05-07 14:44 | 33.55757 | 130.50899 | 11305 ft | 134 kts | 259° |
| 2026-05-07 14:44 | 33.55588 | 130.49809 | 11310 ft | 133 kts | 259° |
| 2026-05-07 14:44 | 33.55425 | 130.48718 | 11307 ft | 133 kts | 260° |
| 2026-05-07 14:45 | 33.55255 | 130.47630 | 11310 ft | 133 kts | 258° |
| 2026-05-07 14:45 | 33.55073 | 130.46546 | 11308 ft | 133 kts | 258° |
| 2026-05-07 14:45 | 33.54890 | 130.45465 | 11305 ft | 132 kts | 258° |
| 2026-05-07 14:45 | 33.54707 | 130.44386 | 11306 ft | 132 kts | 258° |
| 2026-05-07 14:46 | 33.54428 | 130.43346 | 11290 ft | 134 kts | 238° |
| 2026-05-07 14:46 | 33.53571 | 130.42849 | 11290 ft | 151 kts | 192° |
| 2026-05-07 14:46 | 33.52548 | 130.43349 | 11287 ft | 174 kts | 146° |
| 2026-05-07 14:46 | 33.51993 | 130.44687 | 11291 ft | 189 kts | 101° |
| 2026-05-07 14:47 | 33.52268 | 130.46218 | 11291 ft | 190 kts | 56° |
| 2026-05-07 14:47 | 33.53235 | 130.47179 | 11287 ft | 176 kts | 11° |
| 2026-05-07 14:47 | 33.54356 | 130.47149 | 11292 ft | 153 kts | 326° |
| 2026-05-07 14:47 | 33.55000 | 130.46289 | 11290 ft | 134 kts | 280° |
| 2026-05-07 14:48 | 33.54815 | 130.45254 | 11289 ft | 134 kts | 235° |
| 2026-05-07 14:48 | 33.53939 | 130.44801 | 11288 ft | 152 kts | 189° |
| 2026-05-07 14:48 | 33.52880 | 130.45011 | 11301 ft | 148 kts | 194° |
| 2026-05-07 14:48 | 33.52100 | 130.44439 | 11310 ft | 131 kts | 246° |
| 2026-05-07 14:49 | 33.52145 | 130.43385 | 11313 ft | 139 kts | 295° |
| 2026-05-07 14:49 | 33.53015 | 130.42769 | 11311 ft | 163 kts | 344° |
| 2026-05-07 14:49 | 33.54151 | 130.43176 | 11308 ft | 185 kts | 32° |
| 2026-05-07 14:49 | 33.54822 | 130.44507 | 11310 ft | 192 kts | 81° |
| 2026-05-07 14:50 | 33.54630 | 130.46035 | 11309 ft | 183 kts | 127° |
| 2026-05-07 14:50 | 33.53746 | 130.46968 | 11312 ft | 163 kts | 168° |
| 2026-05-07 14:50 | 33.52724 | 130.47542 | 11294 ft | 173 kts | 148° |
| 2026-05-07 14:50 | 33.52159 | 130.48865 | 11288 ft | 189 kts | 101° |
| 2026-05-07 14:51 | 33.52425 | 130.50373 | 11288 ft | 190 kts | 56° |
| 2026-05-07 14:51 | 33.53374 | 130.51394 | 11295 ft | 182 kts | 23° |
| 2026-05-07 14:51 | 33.54475 | 130.52148 | 11306 ft | 182 kts | 23° |
| 2026-05-07 14:51 | 33.55572 | 130.52895 | 11308 ft | 181 kts | 22° |
| 2026-05-07 14:52 | 33.56685 | 130.53648 | 11310 ft | 188 kts | 22° |
| 2026-05-07 14:52 | 33.57850 | 130.54432 | 11310 ft | 195 kts | 22° |
| 2026-05-07 14:52 | 33.59056 | 130.55237 | 11309 ft | 200 kts | 22° |
| 2026-05-07 14:52 | 33.60274 | 130.56050 | 11311 ft | 202 kts | 22° |
| 2026-05-07 14:53 | 33.61507 | 130.56872 | 11310 ft | 202 kts | 22° |
| 2026-05-07 14:53 | 33.62740 | 130.57696 | 11311 ft | 203 kts | 23° |
| 2026-05-07 14:53 | 33.63973 | 130.58519 | 11310 ft | 202 kts | 22° |
| 2026-05-07 14:53 | 33.65199 | 130.59341 | 11308 ft | 202 kts | 22° |
| 2026-05-07 14:54 | 33.66424 | 130.60162 | 11304 ft | 200 kts | 22° |
| 2026-05-07 14:54 | 33.67632 | 130.60974 | 11302 ft | 197 kts | 22° |
| 2026-05-07 14:54 | 33.68832 | 130.61781 | 11299 ft | 198 kts | 22° |
| 2026-05-07 14:54 | 33.70034 | 130.62588 | 11301 ft | 198 kts | 22° |
| 2026-05-07 14:55 | 33.71241 | 130.63400 | 11305 ft | 199 kts | 22° |
| 2026-05-07 14:55 | 33.72440 | 130.64203 | 11311 ft | 200 kts | 22° |
| 2026-05-07 14:55 | 33.73659 | 130.65022 | 11311 ft | 201 kts | 22° |
| 2026-05-07 14:55 | 33.74879 | 130.65840 | 11310 ft | 201 kts | 22° |
| 2026-05-07 14:56 | 33.76102 | 130.66660 | 11310 ft | 201 kts | 22° |
| 2026-05-07 14:56 | 33.77327 | 130.67483 | 11311 ft | 202 kts | 22° |
| 2026-05-07 14:56 | 33.78556 | 130.68307 | 11311 ft | 202 kts | 22° |
| 2026-05-07 14:56 | 33.79786 | 130.69134 | 11312 ft | 202 kts | 22° |
| 2026-05-07 14:57 | 33.81014 | 130.69957 | 11313 ft | 202 kts | 22° |
| 2026-05-07 14:57 | 33.82244 | 130.70774 | 11308 ft | 200 kts | 20° |
| 2026-05-07 14:57 | 33.83539 | 130.71038 | 11295 ft | 182 kts | 341° |
| 2026-05-07 14:57 | 33.84632 | 130.70430 | 11302 ft | 170 kts | 319° |
| 2026-05-07 14:58 | 33.85572 | 130.69599 | 11297 ft | 163 kts | 303° |
| 2026-05-07 14:58 | 33.85923 | 130.68389 | 11300 ft | 152 kts | 270° |
| 2026-05-07 14:58 | 33.85751 | 130.67144 | 11293 ft | 152 kts | 250° |
| 2026-05-07 14:58 | 33.85147 | 130.66097 | 11302 ft | 156 kts | 229° |
| 2026-05-07 14:59 | 33.84278 | 130.65298 | 11298 ft | 158 kts | 224° |
| 2026-05-07 14:59 | 33.83407 | 130.64494 | 11303 ft | 157 kts | 224° |
| 2026-05-07 14:59 | 33.82537 | 130.63695 | 11303 ft | 158 kts | 225° |
| 2026-05-07 14:59 | 33.81667 | 130.62891 | 11298 ft | 158 kts | 224° |
| 2026-05-07 15:00 | 33.80793 | 130.62089 | 11301 ft | 158 kts | 224° |
| 2026-05-07 15:00 | 33.79921 | 130.61287 | 11295 ft | 158 kts | 225° |
| 2026-05-07 15:00 | 33.79050 | 130.60485 | 11304 ft | 158 kts | 224° |
| 2026-05-07 15:00 | 33.78176 | 130.59681 | 11300 ft | 158 kts | 224° |
| 2026-05-07 15:01 | 33.77304 | 130.58879 | 11300 ft | 158 kts | 224° |
| 2026-05-07 15:01 | 33.76427 | 130.58074 | 11302 ft | 158 kts | 224° |
| 2026-05-07 15:01 | 33.75553 | 130.57269 | 11301 ft | 158 kts | 224° |
| 2026-05-07 15:01 | 33.74676 | 130.56464 | 11302 ft | 158 kts | 224° |
| 2026-05-07 15:02 | 33.73804 | 130.55662 | 11297 ft | 158 kts | 224° |
| 2026-05-07 15:02 | 33.72937 | 130.54866 | 11296 ft | 155 kts | 224° |
| 2026-05-07 15:02 | 33.72076 | 130.54077 | 11297 ft | 157 kts | 224° |
| 2026-05-07 15:02 | 33.71208 | 130.53283 | 11296 ft | 157 kts | 224° |
| 2026-05-07 15:03 | 33.70339 | 130.52484 | 11298 ft | 158 kts | 224° |
| 2026-05-07 15:03 | 33.69469 | 130.51686 | 11298 ft | 156 kts | 224° |
| 2026-05-07 15:03 | 33.68604 | 130.50891 | 11298 ft | 157 kts | 224° |
| 2026-05-07 15:03 | 33.67744 | 130.50101 | 11298 ft | 158 kts | 224° |
| 2026-05-07 15:04 | 33.66869 | 130.49300 | 11293 ft | 158 kts | 224° |
| 2026-05-07 15:04 | 33.65996 | 130.48497 | 11294 ft | 158 kts | 224° |
| 2026-05-07 15:04 | 33.65122 | 130.47697 | 11292 ft | 157 kts | 224° |
| 2026-05-07 15:04 | 33.64256 | 130.46907 | 11293 ft | 157 kts | 224° |
| 2026-05-07 15:05 | 33.63388 | 130.46112 | 11292 ft | 157 kts | 224° |
| 2026-05-07 15:05 | 33.62524 | 130.45310 | 11298 ft | 157 kts | 225° |
| 2026-05-07 15:05 | 33.61668 | 130.44490 | 11306 ft | 159 kts | 225° |
| 2026-05-07 15:05 | 33.60791 | 130.43651 | 11304 ft | 163 kts | 225° |
| 2026-05-07 15:06 | 33.59898 | 130.42806 | 11297 ft | 163 kts | 225° |
| 2026-05-07 15:06 | 33.59016 | 130.41970 | 11294 ft | 161 kts | 225° |
| 2026-05-07 15:06 | 33.58000 | 130.41393 | 11287 ft | 172 kts | 195° |
| 2026-05-07 15:06 | 33.56806 | 130.41789 | 11285 ft | 192 kts | 155° |
| 2026-05-07 15:07 | 33.55976 | 130.43101 | 11289 ft | 208 kts | 116° |
| 2026-05-07 15:07 | 33.55879 | 130.44835 | 11291 ft | 213 kts | 84° |
| 2026-05-07 15:07 | 33.56098 | 130.46592 | 11299 ft | 213 kts | 83° |
| 2026-05-07 15:07 | 33.56315 | 130.48348 | 11301 ft | 213 kts | 83° |
| 2026-05-07 15:08 | 33.56537 | 130.50106 | 11296 ft | 213 kts | 83° |
| 2026-05-07 15:08 | 33.56759 | 130.51860 | 11296 ft | 213 kts | 83° |
| 2026-05-07 15:08 | 33.56986 | 130.53617 | 11296 ft | 213 kts | 82° |
| 2026-05-07 15:08 | 33.57213 | 130.55379 | 11298 ft | 214 kts | 83° |
| 2026-05-07 15:09 | 33.57438 | 130.57154 | 11297 ft | 215 kts | 83° |
| 2026-05-07 15:09 | 33.57668 | 130.58905 | 11299 ft | 209 kts | 83° |
| 2026-05-07 15:09 | 33.57897 | 130.60628 | 11304 ft | 209 kts | 82° |
| 2026-05-07 15:09 | 33.58481 | 130.62199 | 11288 ft | 207 kts | 45° |
| 2026-05-07 15:10 | 33.59590 | 130.63245 | 11298 ft | 202 kts | 29° |
| 2026-05-07 15:10 | 33.60741 | 130.64181 | 11306 ft | 203 kts | 28° |
| 2026-05-07 15:10 | 33.61914 | 130.65126 | 11313 ft | 203 kts | 28° |
| 2026-05-07 15:10 | 33.63091 | 130.66070 | 11312 ft | 204 kts | 28° |
| 2026-05-07 15:11 | 33.64267 | 130.67019 | 11211 ft | 200 kts | 28° |
| 2026-05-07 15:11 | 33.65375 | 130.67931 | 10839 ft | 188 kts | 28° |
| 2026-05-07 15:11 | 33.66427 | 130.68799 | 10468 ft | 182 kts | 28° |
| 2026-05-07 15:11 | 33.67466 | 130.69656 | 10111 ft | 180 kts | 28° |
| 2026-05-07 15:12 | 33.68494 | 130.70511 | 9755 ft | 178 kts | 28° |
| 2026-05-07 15:12 | 33.69510 | 130.71355 | 9362 ft | 177 kts | 28° |
| 2026-05-07 15:12 | 33.70519 | 130.72186 | 8987 ft | 176 kts | 28° |
| 2026-05-07 15:12 | 33.71537 | 130.73005 | 8601 ft | 176 kts | 28° |
| 2026-05-07 15:13 | 33.72557 | 130.73810 | 8229 ft | 175 kts | 28° |
| 2026-05-07 15:13 | 33.73580 | 130.74607 | 7857 ft | 175 kts | 28° |
| 2026-05-07 15:13 | 33.74606 | 130.75396 | 7492 ft | 174 kts | 28° |
| 2026-05-07 15:13 | 33.75631 | 130.76172 | 7131 ft | 174 kts | 28° |
| 2026-05-07 15:14 | 33.76311 | 130.76683 | 6893 ft | 174 kts | 28° |
| 2026-05-07 15:14 | 33.77339 | 130.77444 | 6539 ft | 174 kts | 28° |
| 2026-05-07 15:14 | 33.78372 | 130.78194 | 6177 ft | 174 kts | 28° |
| 2026-05-07 15:14 | 33.79692 | 130.79265 | 5677 ft | 173 kts | 38° |
| 2026-05-07 15:15 | 33.80322 | 130.79889 | 5411 ft | 173 kts | 38° |
| 2026-05-07 15:15 | 33.81253 | 130.80796 | 5050 ft | 172 kts | 38° |
| 2026-05-07 15:15 | 33.82191 | 130.81690 | 4683 ft | 172 kts | 38° |
| 2026-05-07 15:15 | 33.83433 | 130.82856 | 4181 ft | 170 kts | 38° |
| 2026-05-07 15:16 | 33.84057 | 130.83447 | 3925 ft | 169 kts | 38° |
| 2026-05-07 15:16 | 33.84984 | 130.84327 | 3554 ft | 171 kts | 38° |
| 2026-05-07 15:16 | 33.85869 | 130.85182 | 3494 ft | 157 kts | 37° |
| 2026-05-07 15:16 | 33.86717 | 130.85996 | 3491 ft | 155 kts | 38° |
| 2026-05-07 15:17 | 33.87549 | 130.86802 | 3496 ft | 153 kts | 37° |
| 2026-05-07 15:17 | 33.88376 | 130.87598 | 3491 ft | 152 kts | 37° |
| 2026-05-07 15:17 | 33.89199 | 130.88392 | 3494 ft | 152 kts | 37° |
| 2026-05-07 15:17 | 33.90004 | 130.89218 | 3485 ft | 153 kts | 51° |
| 2026-05-07 15:18 | 33.90344 | 130.90395 | 3502 ft | 149 kts | 85° |
| 2026-05-07 15:18 | 33.90619 | 130.91595 | 3484 ft | 152 kts | 60° |
| 2026-05-07 15:18 | 33.91273 | 130.92589 | 3500 ft | 152 kts | 51° |
| 2026-05-07 15:18 | 33.92019 | 130.93470 | 3483 ft | 151 kts | 23° |
| 2026-05-07 15:19 | 33.93020 | 130.93853 | 3371 ft | 157 kts | 12° |
| 2026-05-07 15:19 | 33.94096 | 130.94273 | 3142 ft | 168 kts | 21° |
| 2026-05-07 15:19 | 33.95097 | 130.95062 | 2916 ft | 175 kts | 34° |
| 2026-05-07 15:19 | 33.96076 | 130.95911 | 2677 ft | 171 kts | 34° |
| 2026-05-07 15:20 | 33.96863 | 130.96935 | 2421 ft | 165 kts | 64° |
| 2026-05-07 15:20 | 33.97254 | 130.98209 | 2167 ft | 160 kts | 74° |
| 2026-05-07 15:20 | 33.97496 | 130.99495 | 1919 ft | 155 kts | 95° |
| 2026-05-07 15:20 | 33.97192 | 131.00688 | 1673 ft | 146 kts | 122° |
| 2026-05-07 15:21 | 33.96668 | 131.01709 | 1421 ft | 141 kts | 139° |
| 2026-05-07 15:21 | 33.95957 | 131.02500 | 1172 ft | 138 kts | 142° |
| 2026-05-07 15:21 | 33.95253 | 131.03263 | 1002 ft | 131 kts | 142° |
| 2026-05-07 15:21 | 33.94602 | 131.03952 | 984 ft | 119 kts | 142° |
| 2026-05-07 15:22 | 33.93867 | 131.04340 | 996 ft | 118 kts | 174° |
| 2026-05-07 15:22 | 33.93051 | 131.04563 | 1006 ft | 122 kts | 169° |
| 2026-05-07 15:22 | 33.92221 | 131.04799 | 1009 ft | 123 kts | 171° |
| 2026-05-07 15:22 | 33.91384 | 131.05032 | 1009 ft | 123 kts | 171° |
| 2026-05-07 15:23 | 33.90552 | 131.05264 | 1003 ft | 122 kts | 170° |
| 2026-05-07 15:23 | 33.89723 | 131.05493 | 1003 ft | 122 kts | 170° |
| 2026-05-07 15:23 | 33.88904 | 131.05720 | 1007 ft | 124 kts | 171° |
| 2026-05-07 15:23 | 33.88055 | 131.05959 | 1011 ft | 127 kts | 169° |
| 2026-05-07 15:24 | 33.87194 | 131.06210 | 1008 ft | 128 kts | 170° |
| 2026-05-07 15:24 | 33.86307 | 131.06428 | 1011 ft | 132 kts | 172° |
| 2026-05-07 15:24 | 33.85435 | 131.06638 | 1003 ft | 126 kts | 171° |
| 2026-05-07 15:24 | 33.84578 | 131.06847 | 997 ft | 126 kts | 172° |
| 2026-05-07 15:25 | 33.83719 | 131.07043 | 969 ft | 124 kts | 172° |
| 2026-05-07 15:25 | 33.82879 | 131.07218 | 952 ft | 122 kts | 173° |
| 2026-05-07 15:25 | 33.82052 | 131.07263 | 954 ft | 116 kts | 205° |
| 2026-05-07 15:25 | 33.81675 | 131.06471 | 895 ft | 120 kts | 263° |
| 2026-05-07 15:26 | 33.81571 | 131.05470 | 655 ft | 115 kts | 263° |
| 2026-05-07 15:26 | 33.81566 | 131.04609 | 638 ft | 100 kts | 291° |
| 2026-05-07 15:26 | 33.82113 | 131.04075 | 376 ft | 105 kts | 343° |
| 2026-05-07 15:26 | 33.82805 | 131.03881 | 217 ft | 99 kts | 350° |
| 2026-05-07 15:27 | 33.83461 | 131.03738 | 84 ft | 94 kts | 351° |
| 2026-05-07 15:27 | 33.84089 | 131.03611 | 27 ft | 87 kts | 350° |
| 2026-05-07 15:27 | 33.84571 | 131.03506 | 30 ft | 57 kts | 351° |
| 2026-05-07 15:27 | 33.84788 | 131.03444 | 31 ft | 4 kts | 286° |
| 2026-05-07 15:28 | 33.84780 | 131.03392 | 30 ft | 8 kts | 258° |
| 2026-05-07 15:28 | 33.84770 | 131.03317 | 29 ft | 9 kts | 262° |
| 2026-05-07 15:28 | 33.84727 | 131.03274 | 29 ft | 10 kts | 182° |
| 2026-05-07 15:28 | 33.84654 | 131.03285 | 29 ft | 11 kts | 171° |
| 2026-05-07 15:29 | 33.84558 | 131.03306 | 29 ft | 20 kts | 171° |
| 2026-05-07 15:29 | 33.84389 | 131.03338 | 29 ft | 26 kts | 171° |
| 2026-05-07 15:29 | 33.84222 | 131.03373 | 29 ft | 23 kts | 170° |
| 2026-05-07 15:29 | 33.84072 | 131.03403 | 29 ft | 21 kts | 171° |
| 2026-05-07 15:30 | 33.83936 | 131.03431 | 29 ft | 19 kts | 171° |
| 2026-05-07 15:30 | 33.83812 | 131.03458 | 29 ft | 17 kts | 169° |
| 2026-05-07 15:30 | 33.83706 | 131.03479 | 29 ft | 8 kts | 171° |
| 2026-05-07 15:30 | 33.83658 | 131.03487 | 29 ft | 5 kts | 191° |
| 2026-05-07 15:31 | 33.83644 | 131.03445 | 29 ft | 6 kts | 262° |
| 2026-05-07 15:31 | 33.83636 | 131.03386 | 29 ft | 8 kts | 259° |
| 2026-05-07 15:31 | 33.83626 | 131.03320 | 29 ft | 7 kts | 259° |
| 2026-05-07 15:31 | 33.83596 | 131.03309 | 29 ft | 6 kts | 169° |
| 2026-05-07 15:32 | 33.83556 | 131.03317 | 29 ft | 5 kts | 179° |
| 2026-05-07 15:32 | 33.83547 | 131.03306 | 29 ft | 0 kts | 264° |
| 2026-05-07 15:32 | 33.83547 | 131.03307 | 41 ft | 0 kts | 274° |